createdAt,value
2017-10-30T00:00:30.038Z,101148.22
2017-10-30T00:02:57.718Z,101160.11
2017-10-30T00:05:25.348Z,101165.22
2017-10-30T00:07:53.022Z,101155.55
2017-10-30T00:10:20.666Z,101167.73
2017-10-30T00:12:48.358Z,101160.83
2017-10-30T00:15:15.996Z,101166.47
2017-10-30T00:17:43.639Z,101168.42
2017-10-30T00:20:11.327Z,101172.00
2017-10-30T00:22:38.970Z,101173.39
2017-10-30T00:25:06.686Z,101174.89
2017-10-30T00:27:34.347Z,101172.55
2017-10-30T00:30:02.046Z,101173.52
2017-10-30T00:32:29.686Z,101173.26
2017-10-30T00:34:57.367Z,101181.25
2017-10-30T00:37:25.002Z,101188.16
2017-10-30T00:39:52.671Z,101190.23
2017-10-30T00:42:21.228Z,101191.73
2017-10-30T00:44:48.910Z,101197.55
2017-10-30T00:47:16.571Z,101205.70
2017-10-30T00:49:44.261Z,101192.45
2017-10-30T00:52:11.900Z,101193.00
2017-10-30T00:54:39.575Z,101195.90
2017-10-30T00:57:07.226Z,101196.18
2017-10-30T00:59:34.911Z,101197.69
2017-10-30T01:02:02.563Z,101201.83
2017-10-30T01:04:30.213Z,101200.98
2017-10-30T01:06:57.886Z,101201.55
2017-10-30T01:09:25.525Z,101205.69
2017-10-30T01:11:53.198Z,101206.09
2017-10-30T01:14:20.868Z,101207.17
2017-10-30T01:16:48.541Z,101206.20
2017-10-30T01:19:16.184Z,101209.09
2017-10-30T01:21:43.862Z,101207.17
2017-10-30T01:24:11.562Z,101212.42
2017-10-30T01:26:39.230Z,101216.70
2017-10-30T01:29:06.875Z,101212.43
2017-10-30T01:31:34.565Z,101219.59
2017-10-30T01:34:02.218Z,101223.31
2017-10-30T01:36:29.878Z,101231.34
2017-10-30T01:38:57.516Z,101222.50
2017-10-30T01:41:25.199Z,101229.11
2017-10-30T01:43:52.846Z,101227.74
2017-10-30T01:46:20.516Z,101227.03
2017-10-30T01:48:48.168Z,101230.21
2017-10-30T01:51:15.853Z,101236.28
2017-10-30T01:53:43.493Z,101235.98
2017-10-30T01:56:11.179Z,101247.00
2017-10-30T01:58:38.822Z,101245.06
2017-10-30T02:01:07.429Z,101242.00
2017-10-30T02:03:35.067Z,101238.86
2017-10-30T02:06:02.733Z,101244.83
2017-10-30T02:08:30.376Z,101248.04
2017-10-30T02:10:58.046Z,101244.59
2017-10-30T02:13:25.708Z,101255.06
2017-10-30T02:15:53.389Z,101248.27
2017-10-30T02:18:21.023Z,101257.52
2017-10-30T02:20:48.717Z,101257.92
2017-10-30T02:23:16.403Z,101269.08
2017-10-30T02:25:44.103Z,101273.69
2017-10-30T02:28:11.742Z,101272.59
2017-10-30T02:30:39.427Z,101276.75
2017-10-30T02:33:07.100Z,101282.16
2017-10-30T02:35:34.790Z,101287.28
2017-10-30T02:38:02.422Z,101289.47
2017-10-30T02:40:30.073Z,101297.34
2017-10-30T02:42:57.763Z,101292.38
2017-10-30T02:45:25.414Z,101297.76
2017-10-30T02:47:53.123Z,101298.70
2017-10-30T02:50:20.780Z,101293.46
2017-10-30T02:52:48.455Z,101308.50
2017-10-30T02:55:16.098Z,101302.29
2017-10-30T02:57:43.774Z,101305.84
2017-10-30T03:00:11.411Z,101313.96
2017-10-30T03:02:39.097Z,101316.94
2017-10-30T03:05:06.751Z,101326.17
2017-10-30T03:07:34.459Z,101329.80
2017-10-30T03:10:02.111Z,101336.16
2017-10-30T03:12:29.783Z,101336.42
2017-10-30T03:14:57.430Z,101344.72
2017-10-30T03:17:25.157Z,101354.80
2017-10-30T03:19:52.828Z,101353.31
2017-10-30T03:22:20.552Z,101350.66
2017-10-30T03:24:48.257Z,101362.91
2017-10-30T03:27:15.923Z,101354.20
2017-10-30T03:29:43.585Z,101361.27
2017-10-30T03:32:11.288Z,101357.38
2017-10-30T03:34:38.927Z,101363.34
2017-10-30T03:37:06.577Z,101369.23
2017-10-30T03:39:34.294Z,101373.13
2017-10-30T03:42:01.934Z,101383.60
2017-10-30T03:44:29.611Z,101386.37
2017-10-30T03:46:57.249Z,101392.04
2017-10-30T03:49:24.920Z,101398.95
2017-10-30T03:51:52.559Z,101405.19
2017-10-30T03:54:20.228Z,101415.09
2017-10-30T03:56:47.873Z,101417.33
2017-10-30T03:59:15.541Z,101412.20
2017-10-30T04:01:43.201Z,101412.04
2017-10-30T04:04:10.931Z,101413.27
2017-10-30T04:06:38.575Z,101422.92
2017-10-30T04:09:06.254Z,101422.22
2017-10-30T04:11:33.887Z,101422.00
2017-10-30T04:14:01.580Z,101421.42
2017-10-30T04:16:29.215Z,101430.54
2017-10-30T04:18:56.911Z,101421.03
2017-10-30T04:21:24.556Z,101426.42
2017-10-30T04:23:52.267Z,101429.02
2017-10-30T04:26:19.909Z,101436.05
2017-10-30T04:28:47.586Z,101435.62
2017-10-30T04:31:15.212Z,101443.34
2017-10-30T04:33:42.888Z,101439.74
2017-10-30T04:36:10.524Z,101445.73
2017-10-30T04:38:38.200Z,101438.30
2017-10-30T04:41:05.839Z,101438.86
2017-10-30T04:43:33.489Z,101447.24
2017-10-30T04:46:01.164Z,101454.00
2017-10-30T04:48:28.810Z,101463.36
2017-10-30T04:50:56.491Z,101456.50
2017-10-30T04:53:24.128Z,101462.36
2017-10-30T04:55:51.811Z,101469.42
2017-10-30T04:58:19.459Z,101473.05
2017-10-30T05:00:47.135Z,101484.22
2017-10-30T05:03:14.777Z,101488.63
2017-10-30T05:05:42.467Z,101494.03
2017-10-30T05:08:10.125Z,101492.34
2017-10-30T05:10:37.800Z,101489.17
2017-10-30T05:13:05.443Z,101497.51
2017-10-30T05:15:33.118Z,101507.36
2017-10-30T05:18:00.776Z,101516.13
2017-10-30T05:20:28.441Z,101519.30
2017-10-30T05:22:56.116Z,101526.32
2017-10-30T05:25:23.778Z,101523.12
2017-10-30T05:27:51.422Z,101528.77
2017-10-30T05:30:19.101Z,101529.78
2017-10-30T05:32:46.747Z,101528.05
2017-10-30T05:35:14.421Z,101527.14
2017-10-30T05:37:42.073Z,101524.23
2017-10-30T05:40:09.775Z,101531.64
2017-10-30T05:42:37.428Z,101534.97
2017-10-30T05:45:05.083Z,101537.63
2017-10-30T05:47:32.759Z,101545.97
2017-10-30T05:50:00.408Z,101548.81
2017-10-30T05:52:28.113Z,101554.83
2017-10-30T05:54:55.759Z,101559.98
2017-10-30T05:57:23.447Z,101557.96
2017-10-30T05:59:51.085Z,101568.95
2017-10-30T06:02:18.758Z,101574.39
2017-10-30T06:04:46.392Z,101577.95
2017-10-30T06:07:14.064Z,101576.27
2017-10-30T06:09:41.715Z,101588.83
2017-10-30T06:12:09.327Z,101589.66
2017-10-30T06:14:36.974Z,101596.55
2017-10-30T06:17:04.648Z,101606.31
2017-10-30T06:19:32.288Z,101609.14
2017-10-30T06:21:59.974Z,101610.13
2017-10-30T06:24:27.657Z,101617.90
2017-10-30T06:26:55.360Z,101622.61
2017-10-30T06:29:23.011Z,101627.77
2017-10-30T06:31:50.642Z,101626.00
2017-10-30T06:34:18.320Z,101633.05
2017-10-30T06:36:45.958Z,101630.94
2017-10-30T06:39:13.655Z,101626.95
2017-10-30T06:41:41.287Z,101626.65
2017-10-30T06:44:08.978Z,101634.34
2017-10-30T06:46:36.631Z,101645.80
2017-10-30T06:49:04.297Z,101645.11
2017-10-30T06:51:31.963Z,101648.54
2017-10-30T06:53:59.640Z,101655.72
2017-10-30T06:56:27.279Z,101661.04
2017-10-30T06:58:54.959Z,101661.89
2017-10-30T07:01:22.618Z,101664.09
2017-10-30T07:03:50.303Z,101658.45
2017-10-30T07:06:17.949Z,101666.52
2017-10-30T07:08:45.626Z,101660.61
2017-10-30T07:11:13.271Z,101667.27
2017-10-30T07:13:40.938Z,101668.31
2017-10-30T07:16:08.607Z,101682.65
2017-10-30T07:18:36.248Z,101684.48
2017-10-30T07:21:03.925Z,101686.63
2017-10-30T07:23:31.594Z,101693.89
2017-10-30T07:25:59.268Z,101702.09
2017-10-30T07:28:26.954Z,101709.75
2017-10-30T07:30:54.642Z,101716.16
2017-10-30T07:33:22.288Z,101716.39
2017-10-30T07:35:49.981Z,101710.33
2017-10-30T07:38:17.653Z,101713.59
2017-10-30T07:40:45.299Z,101714.89
2017-10-30T07:43:12.996Z,101717.42
2017-10-30T07:45:40.657Z,101716.11
2017-10-30T07:48:08.344Z,101714.63
2017-10-30T07:50:36.011Z,101724.45
2017-10-30T07:53:03.712Z,101722.42
2017-10-30T07:55:31.419Z,101735.48
2017-10-30T07:57:59.121Z,101730.95
2017-10-30T08:00:26.779Z,101742.42
2017-10-30T08:02:54.442Z,101743.05
2017-10-30T08:05:22.107Z,101741.03
2017-10-30T08:07:49.803Z,101750.34
2017-10-30T08:10:17.460Z,101749.14
2017-10-30T08:12:45.105Z,101754.18
2017-10-30T08:15:12.800Z,101746.03
2017-10-30T08:17:40.473Z,101749.81
2017-10-30T08:20:08.147Z,101749.02
2017-10-30T08:22:35.842Z,101753.33
2017-10-30T08:25:03.589Z,101765.17
2017-10-30T08:27:31.271Z,101760.75
2017-10-30T08:29:59.040Z,101764.55
2017-10-30T08:32:26.693Z,101766.77
2017-10-30T08:34:54.377Z,101775.11
2017-10-30T08:37:22.018Z,101768.64
2017-10-30T08:39:49.717Z,101781.67
2017-10-30T08:42:17.372Z,101779.16
2017-10-30T08:44:45.070Z,101782.09
2017-10-30T08:47:12.733Z,101778.39
2017-10-30T08:49:40.439Z,101791.97
2017-10-30T08:52:08.135Z,101791.15
2017-10-30T08:54:35.884Z,101802.38
2017-10-30T08:57:03.538Z,101803.35
2017-10-30T08:59:31.222Z,101795.62
2017-10-30T09:01:58.865Z,101809.48
2017-10-30T09:04:26.517Z,101802.72
2017-10-30T09:06:54.216Z,101809.92
2017-10-30T09:09:21.887Z,101816.45
2017-10-30T09:11:49.553Z,101815.91
2017-10-30T09:14:17.189Z,101817.84
2017-10-30T09:16:44.882Z,101819.25
2017-10-30T09:19:12.551Z,101803.33
2017-10-30T09:21:40.246Z,101816.63
2017-10-30T09:24:07.935Z,101824.12
2017-10-30T09:26:35.624Z,101816.23
2017-10-30T09:29:03.286Z,101814.98
2017-10-30T09:31:31.007Z,101816.55
2017-10-30T09:33:58.683Z,101810.00
2017-10-30T09:36:26.354Z,101821.52
2017-10-30T09:38:54.019Z,101819.04
2017-10-30T09:41:21.742Z,101821.30
2017-10-30T09:43:49.418Z,101814.91
2017-10-30T09:46:17.102Z,101827.23
2017-10-30T09:48:44.740Z,101836.69
2017-10-30T09:51:12.438Z,101841.66
2017-10-30T09:53:40.078Z,101837.35
2017-10-30T09:56:07.764Z,101845.38
2017-10-30T09:58:35.415Z,101849.12
2017-10-30T10:01:03.103Z,101851.34
2017-10-30T10:03:30.735Z,101848.67
2017-10-30T10:05:58.490Z,101843.65
2017-10-30T10:08:26.188Z,101841.16
2017-10-30T10:10:53.839Z,101843.09
2017-10-30T10:13:21.520Z,101837.55
2017-10-30T10:15:49.180Z,101841.16
2017-10-30T10:18:16.854Z,101855.41
2017-10-30T10:20:44.492Z,101847.89
2017-10-30T10:23:12.182Z,101862.93
2017-10-30T10:25:39.871Z,101864.59
2017-10-30T10:28:07.652Z,101867.76
2017-10-30T10:30:35.330Z,101862.68
2017-10-30T10:33:03.007Z,101871.34
2017-10-30T10:35:30.711Z,101857.55
2017-10-30T10:37:58.381Z,101858.84
2017-10-30T10:40:25.975Z,101862.46
2017-10-30T10:42:53.971Z,101868.14
2017-10-30T10:45:21.648Z,101870.75
2017-10-30T10:47:49.338Z,101870.31
2017-10-30T10:50:16.991Z,101869.45
2017-10-30T10:52:44.683Z,101875.70
2017-10-30T10:55:12.331Z,101884.03
2017-10-30T10:57:40.005Z,101882.60
2017-10-30T11:00:07.678Z,101882.19
2017-10-30T11:02:35.333Z,101886.37
2017-10-30T11:05:02.944Z,101892.80
2017-10-30T11:07:30.580Z,101899.73
2017-10-30T11:09:58.275Z,101896.49
2017-10-30T11:12:25.915Z,101905.35
2017-10-30T11:14:53.575Z,101899.25
2017-10-30T11:17:21.219Z,101903.59
2017-10-30T11:19:48.914Z,101891.69
2017-10-30T11:22:16.565Z,101898.48
2017-10-30T11:24:44.239Z,101902.38
2017-10-30T11:27:11.885Z,101899.17
2017-10-30T11:29:39.859Z,101900.91
2017-10-30T11:32:07.542Z,101913.77
2017-10-30T11:34:35.211Z,101905.22
2017-10-30T11:37:02.839Z,101913.60
2017-10-30T11:39:30.484Z,101917.16
2017-10-30T11:41:58.135Z,101911.44
2017-10-30T11:44:25.855Z,101910.80
2017-10-30T11:46:53.500Z,101918.21
2017-10-30T11:49:21.148Z,101929.90
2017-10-30T11:51:48.811Z,101917.73
2017-10-30T11:54:16.475Z,101917.52
2017-10-30T11:56:44.163Z,101916.38
2017-10-30T11:59:11.836Z,101913.08
2017-10-30T12:01:39.555Z,101923.58
2017-10-30T12:04:07.225Z,101923.58
2017-10-30T12:06:34.935Z,101910.13
2017-10-30T12:09:02.575Z,101902.17
2017-10-30T12:11:30.254Z,101925.20
2017-10-30T12:13:57.925Z,101931.31
2017-10-30T12:16:25.659Z,101932.35
2017-10-30T12:18:53.323Z,101929.30
2017-10-30T12:21:21.004Z,101926.59
2017-10-30T12:23:48.652Z,101926.42
2017-10-30T12:26:16.340Z,101932.31
2017-10-30T12:28:43.923Z,101938.08
2017-10-30T12:31:11.603Z,101925.83
2017-10-30T12:33:39.299Z,101933.44
2017-10-30T12:36:06.956Z,101937.02
2017-10-30T12:38:34.651Z,101931.63
2017-10-30T12:41:02.337Z,101931.75
2017-10-30T12:43:30.010Z,101929.27
2017-10-30T12:45:57.658Z,101936.89
2017-10-30T12:48:25.355Z,101933.95
2017-10-30T12:50:53.002Z,101925.23
2017-10-30T12:53:20.695Z,101937.65
2017-10-30T12:55:48.294Z,101949.59
2017-10-30T12:58:16.004Z,101942.86
2017-10-30T13:00:43.679Z,101942.48
2017-10-30T13:03:11.354Z,101952.76
2017-10-30T13:05:39.028Z,101949.16
2017-10-30T13:08:06.682Z,101950.39
2017-10-30T13:10:34.383Z,101960.13
2017-10-30T13:13:02.074Z,101959.97
2017-10-30T13:15:29.758Z,101946.88
2017-10-30T13:17:57.396Z,101939.63
2017-10-30T13:20:25.104Z,101942.80
2017-10-30T13:22:52.686Z,101952.41
2017-10-30T13:25:20.380Z,101946.70
2017-10-30T13:27:48.027Z,101954.38
2017-10-30T13:30:15.743Z,101960.41
2017-10-30T13:32:43.378Z,101947.48
2017-10-30T13:35:11.061Z,101956.80
2017-10-30T13:37:39.028Z,101962.05
2017-10-30T13:40:06.705Z,101946.51
2017-10-30T13:42:34.357Z,101963.05
2017-10-30T13:45:02.033Z,101958.98
2017-10-30T13:47:29.703Z,101965.67
2017-10-30T13:49:57.337Z,101965.58
2017-10-30T13:52:25.023Z,101958.23
2017-10-30T13:54:52.672Z,101960.48
2017-10-30T13:57:20.347Z,101967.30
2017-10-30T13:59:47.983Z,101968.28
2017-10-30T14:02:16.126Z,101975.53
2017-10-30T14:04:43.778Z,101964.42
2017-10-30T14:07:11.478Z,101973.58
2017-10-30T14:09:39.109Z,101968.31
2017-10-30T14:12:06.988Z,101968.19
2017-10-30T14:14:34.659Z,101974.02
2017-10-30T14:17:02.320Z,101979.16
2017-10-30T14:19:30.012Z,101980.73
2017-10-30T14:21:57.668Z,101967.48
2017-10-30T14:24:25.353Z,101981.14
2017-10-30T14:26:52.992Z,101977.95
2017-10-30T14:29:20.677Z,101985.89
2017-10-30T14:31:48.380Z,101980.03
2017-10-30T14:34:16.055Z,101984.20
2017-10-30T14:36:43.674Z,101989.39
2017-10-30T14:39:11.347Z,101984.26
2017-10-30T14:41:38.943Z,101980.34
2017-10-30T14:44:06.634Z,101977.86
2017-10-30T14:46:34.208Z,101983.98
2017-10-30T14:49:01.917Z,101989.70
2017-10-30T14:51:29.570Z,101990.52
2017-10-30T14:53:57.241Z,101992.62
2017-10-30T14:56:24.871Z,101992.06
2017-10-30T14:58:52.558Z,101984.83
2017-10-30T15:01:20.165Z,101990.26
2017-10-30T15:03:47.806Z,101986.51
2017-10-30T15:06:15.488Z,101981.24
2017-10-30T15:08:43.139Z,101983.85
2017-10-30T15:11:10.828Z,101984.27
2017-10-30T15:13:38.465Z,101995.25
2017-10-30T15:16:06.143Z,101994.56
2017-10-30T15:18:33.782Z,101989.96
2017-10-30T15:21:01.469Z,101991.22
2017-10-30T15:23:29.110Z,101997.70
2017-10-30T15:25:56.786Z,101997.92
2017-10-30T15:28:24.441Z,101999.67
2017-10-30T15:30:52.188Z,102006.23
2017-10-30T15:33:19.848Z,102002.70
2017-10-30T15:35:47.524Z,102007.25
2017-10-30T15:38:15.164Z,102012.52
2017-10-30T15:40:42.866Z,102006.38
2017-10-30T15:43:10.518Z,102001.63
2017-10-30T15:45:38.224Z,102006.47
2017-10-30T15:48:05.892Z,102000.47
2017-10-30T15:50:33.534Z,101999.17
2017-10-30T15:53:01.216Z,102004.84
2017-10-30T15:55:28.866Z,102011.33
2017-10-30T15:57:56.548Z,102010.70
2017-10-30T16:00:24.199Z,102017.06
2017-10-30T16:02:51.878Z,102024.11
2017-10-30T16:05:19.508Z,102027.25
2017-10-30T16:07:47.172Z,102036.80
2017-10-30T16:10:14.831Z,102039.87
2017-10-30T16:12:42.518Z,102037.84
2017-10-30T16:15:10.174Z,102042.23
2017-10-30T16:17:37.858Z,102047.86
2017-10-30T16:20:05.490Z,102058.66
2017-10-30T16:22:33.193Z,102054.44
2017-10-30T16:25:00.831Z,102055.00
2017-10-30T16:27:28.514Z,102056.55
2017-10-30T16:29:56.177Z,102057.95
2017-10-30T16:32:23.890Z,102055.81
2017-10-30T16:34:51.559Z,102049.17
2017-10-30T16:37:20.256Z,102056.97
2017-10-30T16:39:47.901Z,102058.17
2017-10-30T16:42:15.584Z,102061.82
2017-10-30T16:44:43.266Z,102057.91
2017-10-30T16:47:10.888Z,102055.83
2017-10-30T16:49:38.608Z,102057.84
2017-10-30T16:52:06.248Z,102060.95
2017-10-30T16:54:33.938Z,102066.97
2017-10-30T16:57:01.589Z,102063.70
2017-10-30T16:59:29.282Z,102062.28
2017-10-30T17:01:56.923Z,102064.66
2017-10-30T17:04:24.611Z,102056.41
2017-10-30T17:06:52.293Z,102062.61
2017-10-30T17:09:19.983Z,102067.13
2017-10-30T17:11:47.573Z,102073.69
2017-10-30T17:14:15.288Z,102072.36
2017-10-30T17:16:42.951Z,102069.84
2017-10-30T17:19:10.634Z,102074.69
2017-10-30T17:21:38.288Z,102078.14
2017-10-30T17:24:13.757Z,102077.46
2017-10-30T17:26:41.440Z,102075.72
2017-10-30T17:29:09.083Z,102079.88
2017-10-30T17:31:36.820Z,102080.13
2017-10-30T17:34:04.476Z,102087.99
2017-10-30T17:36:32.165Z,102089.20
2017-10-30T17:38:59.807Z,102089.52
2017-10-30T17:41:27.679Z,102081.72
2017-10-30T17:43:55.347Z,102087.34
2017-10-30T17:46:23.030Z,102084.31
2017-10-30T17:48:50.674Z,102081.08
2017-10-30T17:51:18.354Z,102088.30
2017-10-30T17:53:46.004Z,102088.09
2017-10-30T17:56:13.716Z,102085.02
2017-10-30T17:58:41.361Z,102089.05
2017-10-30T18:01:09.025Z,102091.95
2017-10-30T18:03:36.673Z,102092.55
2017-10-30T18:06:04.372Z,102091.75
2017-10-30T18:08:32.029Z,102098.45
2017-10-30T18:10:59.734Z,102102.30
2017-10-30T18:13:27.389Z,102108.10
2017-10-30T18:15:55.067Z,102108.81
2017-10-30T18:18:22.722Z,102110.86
2017-10-30T18:20:50.406Z,102109.14
2017-10-30T18:23:18.055Z,102106.44
2017-10-30T18:25:45.736Z,102110.27
2017-10-30T18:28:13.397Z,102113.26
2017-10-30T18:30:41.149Z,102112.88
2017-10-30T18:33:08.810Z,102110.02
2017-10-30T18:35:36.461Z,102110.23
2017-10-30T18:38:04.165Z,102112.22
2017-10-30T18:40:31.818Z,102122.17
2017-10-30T18:42:59.532Z,102120.23
2017-10-30T18:45:27.181Z,102125.52
2017-10-30T18:47:54.889Z,102130.96
2017-10-30T18:50:22.561Z,102134.50
2017-10-30T18:52:50.235Z,102130.67
2017-10-30T18:55:17.886Z,102133.78
2017-10-30T18:57:45.570Z,102131.12
2017-10-30T19:00:13.228Z,102134.52
2017-10-30T19:02:40.932Z,102123.45
2017-10-30T19:05:08.580Z,102122.59
2017-10-30T19:07:36.278Z,102118.84
2017-10-30T19:10:04.822Z,102121.09
2017-10-30T19:12:32.538Z,102118.75
2017-10-30T19:15:00.210Z,102119.70
2017-10-30T19:17:27.854Z,102126.01
2017-10-30T19:19:55.482Z,102132.75
2017-10-30T19:22:23.158Z,102142.29
2017-10-30T19:24:50.785Z,102139.66
2017-10-30T19:27:18.432Z,102138.80
2017-10-30T19:29:46.125Z,102122.44
2017-10-30T19:32:13.846Z,102119.00
2017-10-30T19:34:41.521Z,102115.91
2017-10-30T19:37:09.162Z,102125.36
2017-10-30T19:39:36.851Z,102126.35
2017-10-30T19:42:04.513Z,102128.84
2017-10-30T19:44:32.209Z,102127.41
2017-10-30T19:46:59.833Z,102125.36
2017-10-30T19:49:27.520Z,102119.56
2017-10-30T19:51:55.182Z,102124.50
2017-10-30T19:54:22.873Z,102130.20
2017-10-30T19:56:50.514Z,102129.77
2017-10-30T19:59:18.198Z,102130.88
2017-10-30T20:01:45.864Z,102134.06
2017-10-30T20:04:13.549Z,102129.24
2017-10-30T20:06:46.773Z,102134.91
2017-10-30T20:09:20.019Z,102137.12
2017-10-30T20:11:53.200Z,102138.23
2017-10-30T20:14:20.868Z,102146.45
2017-10-30T20:16:48.708Z,102145.88
2017-10-30T20:19:16.355Z,102138.13
2017-10-30T20:21:44.034Z,102145.09
2017-10-30T20:24:11.705Z,102149.30
2017-10-30T20:26:39.408Z,102158.64
2017-10-30T20:29:07.072Z,102154.56
2017-10-30T20:31:34.789Z,102154.28
2017-10-30T20:34:02.467Z,102160.55
2017-10-30T20:36:30.144Z,102159.95
2017-10-30T20:38:57.804Z,102152.37
2017-10-30T20:41:25.533Z,102154.17
2017-10-30T20:43:53.178Z,102153.22
2017-10-30T20:46:20.877Z,102163.56
2017-10-30T20:48:48.519Z,102158.58
2017-10-30T20:51:16.210Z,102158.89
2017-10-30T20:53:43.875Z,102150.94
2017-10-30T20:56:11.585Z,102149.19
2017-10-30T20:58:39.283Z,102152.17
2017-10-30T21:01:06.870Z,102154.54
2017-10-30T21:03:34.588Z,102152.48
2017-10-30T21:06:02.217Z,102162.30
2017-10-30T21:08:29.907Z,102162.72
2017-10-30T21:10:57.575Z,102167.40
2017-10-30T21:13:25.247Z,102171.59
2017-10-30T21:15:52.938Z,102171.22
2017-10-30T21:18:20.622Z,102171.95
2017-10-30T21:20:48.281Z,102167.50
2017-10-30T21:23:15.977Z,102165.37
2017-10-30T21:25:43.618Z,102157.95
2017-10-30T21:28:11.313Z,102155.28
2017-10-30T21:30:39.810Z,102153.11
2017-10-30T21:33:07.493Z,102152.34
2017-10-30T21:35:35.130Z,102152.39
2017-10-30T21:38:02.816Z,102146.17
2017-10-30T21:40:30.486Z,102149.98
2017-10-30T21:42:58.166Z,102149.66
2017-10-30T21:45:25.819Z,102141.81
2017-10-30T21:47:53.478Z,102140.64
2017-10-30T21:50:21.173Z,102141.16
2017-10-30T21:52:48.822Z,102142.84
2017-10-30T21:55:16.511Z,102139.75
2017-10-30T21:57:44.155Z,102150.77
2017-10-30T22:00:11.872Z,102149.70
2017-10-30T22:02:39.496Z,102150.93
2017-10-30T22:05:07.183Z,102156.34
2017-10-30T22:07:34.827Z,102157.56
2017-10-30T22:10:02.503Z,102158.15
2017-10-30T22:12:30.166Z,102163.98
2017-10-30T22:14:57.857Z,102157.19
2017-10-30T22:17:25.500Z,102156.06
2017-10-30T22:19:53.192Z,102155.69
2017-10-30T22:22:20.857Z,102152.33
2017-10-30T22:24:48.566Z,102151.10
2017-10-30T22:27:16.211Z,102150.48
2017-10-30T22:29:43.852Z,102151.06
2017-10-30T22:32:11.556Z,102149.57
2017-10-30T22:34:39.204Z,102155.80
2017-10-30T22:37:06.873Z,102152.56
2017-10-30T22:39:34.509Z,102148.69
2017-10-30T22:42:02.195Z,102155.55
2017-10-30T22:44:29.832Z,102158.05
2017-10-30T22:46:57.525Z,102158.24
2017-10-30T22:49:25.164Z,102160.74
2017-10-30T22:51:52.834Z,102168.08
2017-10-30T22:54:20.478Z,102164.24
2017-10-30T22:56:48.158Z,102164.44
2017-10-30T22:59:15.802Z,102157.64
2017-10-30T23:01:43.527Z,102150.30
2017-10-30T23:04:11.161Z,102151.03
2017-10-30T23:06:38.822Z,102157.38
2017-10-30T23:09:06.470Z,102153.38
2017-10-30T23:11:34.127Z,102150.04
2017-10-30T23:14:01.821Z,102155.03
2017-10-30T23:16:29.462Z,102157.41
2017-10-30T23:18:57.146Z,102154.84
2017-10-30T23:21:24.798Z,102160.68
2017-10-30T23:23:52.491Z,102148.82
2017-10-30T23:26:20.210Z,102143.52
2017-10-30T23:28:47.909Z,102149.48
2017-10-30T23:31:15.613Z,102138.30
2017-10-30T23:33:43.290Z,102140.95
2017-10-30T23:36:10.953Z,102146.06
2017-10-30T23:38:38.643Z,102143.63
2017-10-30T23:41:06.269Z,102148.24
2017-10-30T23:43:33.963Z,102141.63
2017-10-30T23:46:01.623Z,102139.45
2017-10-30T23:48:29.261Z,102142.52
2017-10-30T23:50:56.878Z,102136.21
2017-10-30T23:53:24.506Z,102130.60
2017-10-30T23:55:52.197Z,102134.09
2017-10-30T23:58:19.834Z,102134.13
